CDT,Max TemperatureF,Mean TemperatureF,Min TemperatureF,Max Dew PointF,MeanDew PointF,Min DewpointF,Max Humidity, Mean Humidity, Min Humidity, Max Sea Level PressureIn, Mean Sea Level PressureIn, Min Sea Level PressureIn, Max VisibilityMiles, Mean VisibilityMiles, Min VisibilityMiles, Max Wind SpeedMPH, Mean Wind SpeedMPH, Max Gust SpeedMPH,PrecipitationIn, CloudCover, Events, WindDirDegrees
2012-10-1,77,61,44,54,48,44,100,69,38,29.98,29.93,29.89,10,10,9,21,7,30,0.00,3,,338
2012-10-2,75,58,40,44,38,32,83,53,22,30.01,29.95,29.88,10,10,9,9,2,15,0.00,0,,298
2012-10-3,82,60,37,48,42,36,100,62,24,29.96,29.89,29.82,10,10,10,21,6,28,0.00,0,,191
2012-10-4,66,58,50,51,40,35,80,60,40,30.31,30.20,29.94,10,10,10,15,7,29,T,5,Rain,3
2012-10-5,54,46,38,34,33,30,79,60,41,30.35,30.30,30.27,10,10,10,18,7,24,0.00,5,,27
2012-10-6,48,44,39,34,27,22,79,57,34,30.43,30.36,30.30,10,10,10,13,3,17,0.00,5,,12
2012-10-7,58,42,26,34,29,25,92,61,30,30.37,30.27,30.15,10,10,10,16,4,22,0.00,1,,245
2012-10-8,72,50,28,36,33,28,85,55,25,30.14,30.00,29.88,10,10,10,23,12,31,0.00,0,,212
2012-10-9,64,49,34,42,36,25,75,54,32,30.17,29.97,29.86,10,10,10,21,7,29,0.00,1,,263
2012-10-10,68,48,28,32,28,25,92,57,22,30.31,30.21,30.11,10,10,10,14,3,18,0.00,0,,212
2012-10-11,79,60,40,54,43,32,71,55,39,30.20,30.06,29.98,10,10,10,23,7,30,0.00,2,,91
2012-10-12,61,56,51,55,41,27,93,66,38,30.28,30.16,30.00,10,8,2,24,9,35,0.21,8,Rain-Thunderstorm,75
2012-10-13,76,68,60,69,64,57,93,83,73,29.96,29.75,29.57,10,9,2,22,9,29,0.16,6,Rain-Thunderstorm,186
2012-10-14,75,61,47,61,49,39,93,61,29,30.01,29.84,29.56,10,10,6,17,6,25,0.04,3,Rain-Thunderstorm,323
2012-10-15,83,61,39,50,46,40,96,61,26,30.01,29.91,29.75,10,10,5,20,3,24,0.00,0,,219
2012-10-16,81,69,57,53,47,44,78,53,28,29.71,29.59,29.46,10,10,10,20,8,25,0.00,0,,225
2012-10-17,70,59,48,56,41,24,84,54,24,29.73,29.56,29.39,10,10,10,18,8,32,0.02,2,,284
2012-10-18,63,55,47,35,28,22,50,36,22,29.78,29.74,29.69,10,10,9,25,11,40,0.00,4,,288
2012-10-19,63,50,37,39,36,33,86,63,39,29.87,29.81,29.76,10,10,10,15,6,28,0.00,5,,319
2012-10-20,82,57,32,48,40,33,92,58,23,29.84,29.75,29.64,10,10,10,12,3,15,0.00,0,,127
2012-10-21,82,64,46,67,58,45,93,76,58,29.75,29.70,29.65,10,10,6,21,6,26,0.00,0,,137
2012-10-22,73,63,53,66,59,53,100,83,66,29.83,29.75,29.65,10,5,0,20,4,24,0.00,3,Fog,227
2012-10-23,89,71,52,66,59,52,93,62,31,29.80,29.71,29.61,10,9,4,25,10,32,0.00,3,,200
2012-10-24,84,73,61,66,63,57,84,68,51,29.75,29.69,29.62,10,10,9,25,12,33,0.01,4,,215
2012-10-25,63,51,38,58,38,28,93,71,48,30.35,29.99,29.59,10,9,3,20,10,32,0.07,6,Rain,357
2012-10-26,48,37,25,27,26,24,85,65,45,30.56,30.47,30.39,10,10,10,18,5,26,0.00,2,,2
2012-10-27,49,36,22,29,25,20,96,68,39,30.45,30.37,30.27,10,10,10,10,2,14,0.00,2,,101
2012-10-28,57,40,22,30,27,21,88,60,32,30.36,30.29,30.22,10,10,7,12,4,16,0.00,3,,152
2012-10-29,68,54,39,32,30,28,62,44,26,30.25,30.15,30.06,10,10,10,21,7,31,0.00,2,,184
2012-10-30,64,50,35,34,32,30,70,51,32,30.06,30.00,29.96,10,10,10,15,5,20,0.00,1,,65
2012-10-31,67,50,33,36,33,29,89,59,29,30.11,30.05,29.99,10,9,4,9,1,13,0.00,1,,214